• Join FlightAware (Why Join?)
  • Login
  • US Flag 
02:05AM EDT


 

Airport Tracker/Info


-or-


 

Live Flight TrackerFlight Track Log ✈ AAL1370 ✈ 22-Jun-2013 ✈ KDFW - MKJS / MBJ

Flight Track Log - Related Links

Times and Time Zones

All times are in EDT time to prevent confusion due to time zone crossing. See the AAL1370 flight status page for this flight to view local times or setup timezone preferences in your user account.

Time Position Orientation Groundspeed Altitude Reporting Facility
EDT Latitude Longitude Course Direction KTS MPH feet Rate Location/Type
12:40PM 32.8670 -97.0300 181° South 166 191 2,000  Level FlightAware
12:41PM 32.8340 -97.0300 180° South 213 245 2,800 1,380 Climbing FlightAware
12:41PM 32.8100 -97.0300 180° South 229 264 3,600 2,340 Climbing FlightAware
12:41PM 32.7800 -97.0300 180° South 236 272 4,800 2,700 Climbing FlightAware
12:42PM 32.7400 -97.0270 176° South 254 292 6,200 2,400 Climbing FlightAware
12:42PM 32.7070 -97.0130 160° South 268 308 7,300 2,460 Climbing FlightAware
12:43PM 32.6710 -96.9960 158° South 272 313 8,700 2,700 Climbing FlightAware
12:43PM 32.6600 -96.9910 159° South 273 314 9,100 1,800 Climbing FlightAware
12:44PM 32.6030 -96.9640 158° South 308 354 10,400 1,560 Climbing FlightAware
12:44PM 32.5550 -96.9420 159° South 337 388 11,200 2,040 Climbing FlightAware
12:45PM 32.4770 -96.9060 159° South 351 404 13,300 2,340 Climbing FlightAware
12:46PM 32.4220 -96.8800 158° South 366 421 14,700 2,100 Climbing FlightAware
12:47PM 32.3600 -96.8510 158° South 381 438 16,100 2,460 Climbing FlightAware
12:47PM 32.2750 -96.8120 159° South 389 448 18,300 2,460 Climbing FlightAware
12:48PM 32.2050 -96.7850 162° South 398 458 19,700 2,040 Climbing FlightAware
12:49PM 32.1300 -96.7570 162° South 411 473 21,100 1,860 Climbing FlightAware
12:49PM 32.0560 -96.7290 162° South 421 484 22,300 1,860 Climbing FlightAware
12:50PM 31.9710 -96.6960 162° South 427 491 23,800 1,860 Climbing FlightAware
12:51PM 31.8900 -96.6660 163° South 436 502 25,000 1,560 Climbing FlightAware
12:53PM 31.6457 -96.5654 161° South 453 521 28,300 1,500 Climbing FlightAware ADS-B
12:53PM 31.5840 -96.5404 161° South 456 525 29,000 1,080 Climbing FlightAware ADS-B
12:55PM 31.4434 -96.4852 162° South 471 542 30,200 1,140 Climbing FlightAware ADS-B
12:55PM 31.3750 -96.4601 163° South 473 544 31,000 1,380 Climbing FlightAware ADS-B
12:56PM 31.3094 -96.4358 162° South 471 542 31,700 1,440 Climbing FlightAware ADS-B
12:57PM 31.1668 -96.3711 146° Southeast 469 540 33,500 1,440 Climbing FlightAware ADS-B
12:57PM 31.1535 -96.3579 140° Southeast 468 539 33,600 1,320 Climbing FlightAware ADS-B
12:57PM 31.1391 -96.3394 132° Southeast 468 539 33,900 1,560 Climbing FlightAware ADS-B
12:57PM 31.1319 -96.3283 127° Southeast 467 537 34,000 1,140 Climbing FlightAware ADS-B
12:58PM 31.0935 -96.2653 125° Southeast 468 539 34,600 960 Climbing FlightAware ADS-B
12:59PM 31.0149 -96.1377 126° Southeast 473 544 35,500 780 Climbing FlightAware ADS-B
01:01PM 30.8586 -95.8850 126° Southeast 475 547 37,000 240 Climbing FlightAware ADS-B
01:04PM 30.6216 -95.5045 126° Southeast 474 545 37,000  Level FlightAware ADS-B
01:04PM 30.5824 -95.4419 126° Southeast 473 544 37,000  Level FlightAware ADS-B
01:05PM 30.5435 -95.3798 126° Southeast 473 544 37,000  Level FlightAware ADS-B
01:06PM 30.4656 -95.2556 126° Southeast 474 545 37,000  Level FlightAware ADS-B
01:06PM 30.4254 -95.1922 126° Southeast 474 545 37,000  Level FlightAware ADS-B
01:11PM 30.1044 -94.6866 126° Southeast 470 541 37,000  Level FlightAware ADS-B
01:11PM 30.0648 -94.6247 126° Southeast 470 541 37,000  Level FlightAware ADS-B
01:12PM 30.0248 -94.5621 126° Southeast 469 540 37,000  Level FlightAware ADS-B
01:12PM 29.9855 -94.5008 126° Southeast 468 539 37,000  Level FlightAware ADS-B
01:14PM 29.8662 -94.3154 127° Southeast 470 541 37,000  Level FlightAware ADS-B
01:14PM 29.8314 -94.2636 130° Southeast 472 543 37,000  Level FlightAware ADS-B
01:15PM 29.7089 -94.1439 141° Southeast 476 548 37,000  Level FlightAware ADS-B
01:16PM 29.6565 -94.0953 141° Southeast 476 548 37,000  Level FlightAware ADS-B
01:17PM 29.5522 -93.9979 141° Southeast 477 549 37,000  Level FlightAware ADS-B
01:17PM 29.5014 -93.9490 140° Southeast 475 547 37,000  Level FlightAware ADS-B
01:18PM 29.4497 -93.8986 140° Southeast 472 543 37,000  Level FlightAware ADS-B
01:18PM 29.3997 -93.8499 140° Southeast 471 542 37,000  Level FlightAware ADS-B
01:19PM 29.3188 -93.7720 140° Southeast 471 542 37,000  Level FlightAware ADS-B
01:20PM 29.2669 -93.7260 142° Southeast 474 545 37,000  Level FlightAware ADS-B
01:20PM 29.2066 -93.6736 143° Southeast 475 547 37,000  Level FlightAware ADS-B
01:21PM 29.1533 -93.6278 143° Southeast 474 545 37,000  Level FlightAware ADS-B
01:21PM 29.0992 -93.5810 143° Southeast 474 545 37,000  Level FlightAware ADS-B
01:22PM 29.0444 -93.5337 143° Southeast 474 545 37,000  Level FlightAware ADS-B
01:22PM 28.9879 -93.4849 143° Southeast 474 545 37,000  Level FlightAware ADS-B
01:23PM 28.9339 -93.4381 143° Southeast 475 547 37,000 -120 Level FlightAware ADS-B
01:23PM 28.8903 -93.3997 143° Southeast 476 548 36,900  Descending Houston Center
01:24PM 28.7858 -93.3092 143° Southeast 474 545 37,000  Climbing Houston Center
01:25PM 28.6803 -93.2183 143° Southeast 475 547 36,900  Descending Houston Center
01:26PM 28.5747 -93.1281 143° Southeast 477 549 37,000  Climbing Houston Center
01:28PM 28.4478 -93.0194 143° Southeast 475 547 37,000  Level Houston Center
01:29PM 28.3419 -92.9292 143° Southeast 475 547 37,000  Level Houston Center
01:30PM 28.2372 -92.8397 143° Southeast 472 543 37,000  Level Houston Center
01:31PM 28.1322 -92.7497 143° Southeast 474 545 37,000  Level Houston Center
01:32PM 28.0289 -92.6603 143° Southeast 469 540 37,000 -60 Level Houston Center
01:33PM 27.9258 -92.5739 143° Southeast 463 533 36,900  Descending Houston Center
01:34PM 27.8025 -92.4719 144° Southeast 460 529 37,000  Climbing Houston Center
01:35PM 27.7014 -92.3875 144° Southeast 453 521 37,000 120 Level Houston Center
01:36PM 27.6003 -92.3036 144° Southeast 452 520 37,300 480 Climbing Houston Center
01:37PM 27.4997 -92.2183 143° Southeast 451 519 38,000 240 Climbing Houston Center
01:38PM 27.3986 -92.1353 144° Southeast 451 519 37,900  Descending Houston Center
01:39PM 27.2964 -92.0508 144° Southeast 454 522 38,000  Climbing Houston Center
01:40PM 27.1739 -91.9481 143° Southeast 457 526 38,000  Level Houston Center
01:41PM 27.0700 -91.8639 144° Southeast 459 528 38,000  Level Houston Center
01:42PM 26.9669 -91.7831 145° Southeast 455 524 38,000  Level Houston Center
01:43PM 26.8631 -91.7000 144° Southeast 453 521 38,000  Level Houston Center
01:45PM 26.7162 -91.5803 144° Southeast  Level FlightAware Approximate
01:52PM 26.0351 -91.0354 145° Southeast  Level FlightAware Approximate
01:53PM 25.9372 -90.9587 145° Southeast  Level FlightAware Approximate
01:54PM 25.8393 -90.8821 145° Southeast  Level FlightAware Approximate
01:55PM 25.7413 -90.8057 145° Southeast  Level FlightAware Approximate
01:56PM 25.6433 -90.7293 145° Southeast  Level FlightAware Approximate
01:57PM 25.5453 -90.6531 145° Southeast  Level FlightAware Approximate
01:58PM 25.4472 -90.5770 145° Southeast  Level FlightAware Approximate
01:59PM 25.3491 -90.5011 145° Southeast  Level FlightAware Approximate
02:00PM 25.2509 -90.4252 145° Southeast  Level FlightAware Approximate
02:01PM 25.1528 -90.3495 145° Southeast  Level FlightAware Approximate
02:02PM 25.0545 -90.2739 145° Southeast  Level FlightAware Approximate
02:03PM 24.9562 -90.1985 145° Southeast  Level FlightAware Approximate
02:04PM 24.8579 -90.1231 145° Southeast  Level FlightAware Approximate
02:05PM 24.7596 -90.0479 145° Southeast  Level FlightAware Approximate
02:06PM 24.6612 -89.9728 145° Southeast  Level FlightAware Approximate
02:07PM 24.5599 -89.8956 145° Southeast  Level FlightAware Approximate
02:08PM 24.4702 -89.8063 118° Southeast  Level FlightAware Approximate
02:09PM 24.4121 -89.6869 118° Southeast  Level FlightAware Approximate
02:10PM 24.3538 -89.5676 118° Southeast  Level FlightAware Approximate
02:11PM 24.2955 -89.4484 118° Southeast  Level FlightAware Approximate
02:12PM 24.2372 -89.3293 118° Southeast  Level FlightAware Approximate
02:13PM 24.1787 -89.2103 118° Southeast  Level FlightAware Approximate
02:14PM 24.1201 -89.0915 118° Southeast  Level FlightAware Approximate
02:15PM 24.0614 -88.9727 118° Southeast  Level FlightAware Approximate
02:16PM 24.0028 -88.8540 118° Southeast  Level FlightAware Approximate
02:17PM 23.9441 -88.7353 118° Southeast  Level FlightAware Approximate
02:17PM 23.7750 -88.4310 118° Southeast 466 536 38,000  Level FlightAware
02:18PM 23.8853 -88.6168 118° Southeast  Level FlightAware Approximate
02:18PM 23.7150 -88.3140 119° Southeast 466 536 38,000  Level FlightAware
02:19PM 23.6700 -88.2260 119° Southeast 466 536 38,000  Level FlightAware
02:20PM 23.6160 -88.1210 119° Southeast 466 536 38,000  Level FlightAware
02:20PM 23.5650 -88.0220 119° Southeast 468 539 38,000  Level FlightAware
02:21PM 23.5240 -87.9440 120° Southeast 469 540 38,000  Level FlightAware
02:22PM 23.4820 -87.8610 119° Southeast 469 540 38,000 240 Level FlightAware
02:23PM 23.4150 -87.7310 119° Southeast 471 542 38,500 300 Climbing FlightAware
02:23PM 23.3810 -87.6640 119° Southeast 471 542 38,500 300 Level FlightAware
02:24PM 23.3170 -87.5350 118° Southeast 467 537 39,000 180 Climbing FlightAware
02:26PM 23.2430 -87.3900 119° Southeast 464 534 39,000  Level FlightAware
02:26PM 23.1980 -87.3020 119° Southeast 463 533 39,000  Level FlightAware
02:27PM 23.1620 -87.2290 118° Southeast 463 533 39,000  Level FlightAware
02:28PM 23.1060 -87.1210 119° Southeast 461 531 39,000  Level FlightAware
02:28PM 23.0580 -87.0280 119° Southeast 460 529 39,000  Level FlightAware
02:29PM 23.0140 -86.9420 119° Southeast 459 528 39,000  Level FlightAware
02:30PM 22.9880 -86.8900 118° Southeast 459 528 39,000  Level FlightAware
02:30PM 22.9260 -86.7700 119° Southeast 458 527 39,000  Level FlightAware
02:31PM 22.8830 -86.6850 119° Southeast 457 526 39,000  Level FlightAware
02:32PM 22.8580 -86.6370 119° Southeast 458 527 39,000  Level FlightAware
02:33PM 22.7840 -86.4950 119° Southeast 454 522 39,000  Level FlightAware
02:34PM 22.7560 -86.4390 118° Southeast 454 522 39,000  Level FlightAware
02:34PM 22.7050 -86.3640 126° Southeast 452 520 39,000  Level FlightAware
02:35PM 22.6360 -86.2570 125° Southeast 452 520 39,000  Level FlightAware
02:36PM 22.5960 -86.1930 124° Southeast 451 519 39,000  Level FlightAware
02:36PM 22.5490 -86.1220 126° Southeast 452 520 39,000  Level FlightAware
02:37PM 22.4850 -86.0230 125° Southeast 452 520 39,000  Level FlightAware
02:38PM 22.4420 -85.9460 121° Southeast 450 518 39,000  Level FlightAware
02:38PM 22.3970 -85.8590 119° Southeast 450 518 39,000  Level FlightAware
02:39PM 22.3570 -85.7820 119° Southeast 450 518 39,000  Level FlightAware
02:40PM 22.2850 -85.6450 120° Southeast 451 519 39,000  Level FlightAware
02:41PM 22.2370 -85.5520 119° Southeast 451 519 39,000  Level FlightAware
02:42PM 22.1930 -85.4690 120° Southeast 452 520 39,000  Level FlightAware
02:43PM 22.1540 -85.3970 120° Southeast 453 521 39,000  Level FlightAware
02:43PM 22.0990 -85.2910 119° Southeast 452 520 39,000  Level FlightAware
02:44PM 22.0550 -85.2080 120° Southeast 452 520 39,000  Level FlightAware
02:45PM 22.0070 -85.1160 119° Southeast 451 519 39,000  Level FlightAware
02:46PM 21.9770 -85.0590 120° Southeast 451 519 39,000  Level FlightAware
02:46PM 21.9230 -84.9570 120° Southeast 451 519 39,000  Level FlightAware
02:47PM 21.8860 -84.8870 120° Southeast 447 514 39,000  Level FlightAware
02:48PM 21.8120 -84.7480 120° Southeast 443 510 39,000  Level FlightAware
02:49PM 21.7800 -84.6880 120° Southeast 443 510 39,000  Level FlightAware
02:50PM 21.6970 -84.5290 119° Southeast 440 506 39,000  Level FlightAware
02:51PM 21.6420 -84.4270 120° Southeast 438 504 39,000  Level FlightAware
02:52PM 21.6020 -84.3520 120° Southeast 437 503 39,000  Level FlightAware
02:52PM 21.5700 -84.2910 119° Southeast 437 503 39,000  Level FlightAware
02:53PM 21.5140 -84.1870 120° Southeast 437 503 39,000  Level FlightAware
02:54PM 21.4700 -84.1040 120° Southeast 434 499 39,000  Level FlightAware
02:55PM 21.4370 -84.0400 119° Southeast 434 499 39,000  Level FlightAware
02:55PM 21.3870 -83.9510 121° Southeast 436 502 39,000  Level FlightAware
02:56PM 21.3570 -83.8920 119° Southeast 436 502 39,000  Level FlightAware
02:57PM 21.2850 -83.7610 121° Southeast 437 503 39,000  Level FlightAware
02:57PM 21.2550 -83.7030 119° Southeast 437 503 39,000  Level FlightAware
02:58PM 21.2150 -83.6260 119° Southeast 437 503 39,000  Level FlightAware
02:59PM 21.1850 -83.5680 119° Southeast 437 503 39,000  Level FlightAware
03:00PM 21.1460 -83.4920 119° Southeast 437 503 39,000  Level FlightAware
03:00PM 21.1160 -83.4340 119° Southeast 437 503 39,000  Level FlightAware
03:01PM 21.0770 -83.3580 119° Southeast 437 503 39,000  Level FlightAware
03:02PM 20.9580 -83.1580 122° Southeast 447 514 39,000  Level FlightAware
03:03PM 20.9140 -83.0770 120° Southeast 447 514 39,000  Level FlightAware
03:04PM 20.8820 -83.0180 120° Southeast 447 514 39,000  Level FlightAware
03:04PM 20.8480 -82.9550 120° Southeast 447 514 39,000  Level FlightAware
03:05PM 20.8070 -82.8780 120° Southeast 447 514 39,000  Level FlightAware
03:06PM 20.7740 -82.8180 120° Southeast 447 514 39,000  Level FlightAware
03:06PM 20.7310 -82.7380 120° Southeast 447 514 39,000  Level FlightAware
03:07PM 20.7000 -82.6810 120° Southeast 447 514 39,000  Level FlightAware
03:08PM 20.6590 -82.6050 120° Southeast 447 514 39,000  Level FlightAware
03:09PM 20.6170 -82.5270 120° Southeast 447 514 39,000  Level FlightAware
03:09PM 20.5830 -82.4650 120° Southeast 447 514 39,000  Level FlightAware
03:10PM 20.5520 -82.4060 119° Southeast 447 514 39,000  Level FlightAware
03:11PM 20.4960 -82.3040 120° Southeast 447 514 39,000  Level FlightAware
03:12PM 20.4600 -82.2360 119° Southeast 447 514 39,000  Level FlightAware
03:14PM 20.3505 -82.0077 117° Southeast  Level FlightAware Approximate
03:15PM 20.2942 -81.8907 117° Southeast  Level FlightAware Approximate
03:16PM 20.2378 -81.7739 117° Southeast  Level FlightAware Approximate
03:17PM 20.1814 -81.6571 117° Southeast  Level FlightAware Approximate
03:18PM 20.1249 -81.5404 117° Southeast  Level FlightAware Approximate
03:19PM 20.0686 -81.4244 117° Southeast  Level FlightAware Approximate
03:20PM 20.0122 -81.3085 117° Southeast  Level FlightAware Approximate
03:21PM 19.9533 -81.1947 125° Southeast  Level FlightAware Approximate
03:22PM 19.8836 -81.0874 125° Southeast  Level FlightAware Approximate
03:23PM 19.8139 -80.9802 125° Southeast  Level FlightAware Approximate
03:24PM 19.7441 -80.8730 125° Southeast  Level FlightAware Approximate
03:25PM 19.6742 -80.7660 125° Southeast  Level FlightAware Approximate
03:26PM 19.6042 -80.6590 125° Southeast  Level FlightAware Approximate
03:27PM 19.5342 -80.5522 125° Southeast  Level FlightAware Approximate
03:28PM 19.4647 -80.4450 124° Southeast  Level FlightAware Approximate
03:29PM 19.3957 -80.3376 124° Southeast  Level FlightAware Approximate
03:30PM 19.3271 -80.2299 123° Southeast  Level FlightAware Approximate
03:31PM 19.2594 -80.1215 123° Southeast  Level FlightAware Approximate
03:32PM 19.1918 -80.0132 123° Southeast  Level FlightAware Approximate
03:33PM 19.1240 -79.9050 124° Southeast  Level FlightAware Approximate
03:34PM 19.0623 -79.7930 123° Southeast  Level FlightAware Approximate
03:35PM 18.9947 -79.6848 123° Southeast  Level FlightAware Approximate
03:36PM 18.9199 -79.5821 128° Southeast  Level FlightAware Approximate
03:37PM 18.8589 -79.4708 106° East  Level FlightAware Approximate
03:38PM 18.8255 -79.3454 106° East  Level FlightAware Approximate
03:39PM 18.7935 -79.2197 103° East  Level FlightAware Approximate
03:40PM 18.7663 -79.0927 103° East  Level FlightAware Approximate
03:41PM 18.7381 -78.9660 104° East  Level FlightAware Approximate
03:42PM 18.7084 -78.8397 104° East  Level FlightAware Approximate
03:43PM 18.6789 -78.7133 103° East  Level FlightAware Approximate
03:44PM 18.6507 -78.5866 103° East  Level FlightAware Approximate
03:45PM 18.6291 -78.4593 104° East  Level FlightAware Approximate
03:46PM 18.5999 -78.3329 108° East  Level FlightAware Approximate
03:47PM 18.5627 -78.2089 108° East  Level FlightAware Approximate
03:48PM 18.5333 -78.0840 90° East  Level FlightAware Approximate
03:49PM 18.5094 -77.9565 100° East  Level FlightAware Approximate
03:50PM 18.5037 -77.9134 100° East  Level Estimated
03:51PM 18.5037 -77.9134 100° East  Level Estimated
03:52PM 18.5037 -77.9134 100° East  Level Estimated
03:53PM 18.5037 -77.9134 100° East  Level Estimated
03:54PM 18.5037 -77.9134 100° East  Level Estimated
03:55PM 18.5037 -77.9134 100° East  Level Estimated
03:56PM 18.5037 -77.9134 100° East  Level Estimated